Time;durP1;ratioP1;P1;durP2;ratioP2;P2;SDS_P1;SDS_P2;PMS_P1;PMS_P2;Temp;Humidity;BMP_temperature;BMP_pressure;BME280_temperature;BME280_humidity;BME280_pressure;Samples;Min_cycle;Max_cycle;Signal;HPM_P1;HPM_P2
2023/06/28 00:02:12;;;;;;;15.75;6.18;;;;;;;;;;4833608;29;20054;-74
2023/06/28 00:04:44;;;;;;;8.73;5.40;;;;;;;;;;4834262;29;20054;-74
2023/06/28 00:07:16;;;;;;;9.52;4.88;;;;;;;;;;4834288;29;20061;-74
2023/06/28 00:09:47;;;;;;;22.33;6.10;;;;;;;;;;4817536;29;20054;-77
2023/06/28 00:12:17;;;;;;;14.65;6.00;;;;;;;;;;4818364;29;20514;-75
2023/06/28 00:14:47;;;;;;;10.10;5.22;;;;;;;;;;4833727;29;20041;-74
2023/06/28 00:17:19;;;;;;;13.13;4.95;;;;;;;;;;4833818;29;20046;-74
2023/06/28 00:19:50;;;;;;;9.57;5.10;;;;;;;;;;4817212;29;20066;-75
2023/06/28 00:22:29;;;;;;;10.55;5.97;;;;;;;;;;4833684;29;20074;-74
2023/06/28 00:25:01;;;;;;;15.35;6.20;;;;;;;;;;4833724;29;20054;-74
2023/06/28 00:27:34;;;;;;;12.02;5.93;;;;;;;;;;4832265;29;20046;-76
2023/06/28 00:30:08;;;;;;;13.63;5.43;;;;;;;;;;4833432;29;20069;-74
2023/06/28 00:32:38;;;;;;;13.50;5.97;;;;;;;;;;4828800;29;20047;-74
2023/06/28 00:35:09;;;;;;;12.45;5.43;;;;;;;;;;4817227;29;20061;-73
2023/06/28 00:37:43;;;;;;;15.38;5.97;;;;;;;;;;4816732;29;20137;-73
2023/06/28 00:40:14;;;;;;;7.60;4.53;;;;;;;;;;4834317;29;20056;-74
2023/06/28 00:42:45;;;;;;;11.27;4.53;;;;;;;;;;4815854;29;20065;-74
2023/06/28 00:45:18;;;;;;;11.55;5.00;;;;;;;;;;4814022;29;20065;-74
2023/06/28 00:47:50;;;;;;;12.30;4.78;;;;;;;;;;4830576;29;20069;-74
2023/06/28 00:50:21;;;;;;;11.32;6.47;;;;;;;;;;4833931;29;20069;-74
2023/06/28 00:52:52;;;;;;;12.07;4.60;;;;;;;;;;4834388;29;20639;-74
2023/06/28 00:55:23;;;;;;;8.43;4.00;;;;;;;;;;4817489;29;20074;-74
2023/06/28 00:57:55;;;;;;;13.15;5.10;;;;;;;;;;4817323;29;20429;-74
2023/06/28 01:00:27;;;;;;;10.18;4.43;;;;;;;;;;4834038;29;20053;-74
2023/06/28 01:03:00;;;;;;;13.98;5.20;;;;;;;;;;4834306;29;20060;-74
2023/06/28 01:05:31;;;;;;;9.35;4.15;;;;;;;;;;4817311;29;20058;-75
2023/06/28 01:08:06;;;;;;;12.85;4.40;;;;;;;;;;4834069;29;20081;-74
2023/06/28 01:10:37;;;;;;;6.78;4.20;;;;;;;;;;4816601;29;20069;-74
2023/06/28 01:13:09;;;;;;;12.60;4.65;;;;;;;;;;4832799;29;20045;-74
2023/06/28 01:15:39;;;;;;;8.52;4.03;;;;;;;;;;4832721;29;20057;-78
2023/06/28 01:18:12;;;;;;;15.43;5.20;;;;;;;;;;4833120;29;20421;-74
2023/06/28 01:20:43;;;;;;;9.65;5.15;;;;;;;;;;4833488;29;20053;-75
2023/06/28 01:23:13;;;;;;;9.63;5.15;;;;;;;;;;4816627;29;20415;-73
2023/06/28 01:25:43;;;;;;;17.50;4.55;;;;;;;;;;4816293;29;20054;-73
2023/06/28 01:28:14;;;;;;;7.90;3.63;;;;;;;;;;4833689;29;20046;-74
2023/06/28 01:30:52;;;;;;;9.07;4.95;;;;;;;;;;4833624;29;20061;-74
2023/06/28 01:33:23;;;;;;;12.52;5.50;;;;;;;;;;4833692;29;20391;-74
2023/06/28 01:35:54;;;;;;;19.65;4.18;;;;;;;;;;4833352;29;20065;-74
2023/06/28 01:38:28;;;;;;;14.85;4.72;;;;;;;;;;4833688;29;20061;-74
2023/06/28 01:41:01;;;;;;;12.45;4.65;;;;;;;;;;4833732;29;20066;-74
2023/06/28 01:43:33;;;;;;;9.20;4.45;;;;;;;;;;4816642;29;20053;-74
2023/06/28 01:46:04;;;;;;;12.45;4.03;;;;;;;;;;4833482;29;20070;-73
2023/06/28 01:48:35;;;;;;;11.90;4.75;;;;;;;;;;4816314;29;20054;-74
2023/06/28 01:51:07;;;;;;;8.50;4.55;;;;;;;;;;4833451;29;20050;-74
2023/06/28 01:53:39;;;;;;;13.40;5.07;;;;;;;;;;4816956;29;20062;-74
2023/06/28 01:56:10;;;;;;;12.50;4.72;;;;;;;;;;4816080;29;21175;-73
2023/06/28 01:58:41;;;;;;;11.18;5.00;;;;;;;;;;4816547;29;20566;-73
2023/06/28 02:01:13;;;;;;;7.45;4.45;;;;;;;;;;4832983;29;20057;-73
2023/06/28 02:03:44;;;;;;;11.68;4.50;;;;;;;;;;4833286;29;20057;-74
2023/06/28 02:06:15;;;;;;;6.85;4.35;;;;;;;;;;4816719;29;20062;-73
2023/06/28 02:08:47;;;;;;;11.40;4.55;;;;;;;;;;4816151;29;20518;-73
2023/06/28 02:11:18;;;;;;;12.30;4.25;;;;;;;;;;4832916;29;20053;-73
2023/06/28 02:13:49;;;;;;;13.50;4.13;;;;;;;;;;4816084;29;20068;-74
2023/06/28 02:16:22;;;;;;;11.52;4.97;;;;;;;;;;4831920;29;20072;-73
2023/06/28 02:18:56;;;;;;;14.85;4.75;;;;;;;;;;4816613;29;20054;-73
2023/06/28 02:21:27;;;;;;;11.50;4.90;;;;;;;;;;4832802;29;20064;-74
2023/06/28 02:24:00;;;;;;;8.70;4.30;;;;;;;;;;4832381;29;20054;-75
2023/06/28 02:26:32;;;;;;;9.60;4.32;;;;;;;;;;4832688;29;20054;-73
2023/06/28 02:29:02;;;;;;;8.25;4.70;;;;;;;;;;4832528;29;20751;-74
2023/06/28 02:31:33;;;;;;;8.35;4.03;;;;;;;;;;4816763;29;20429;-74
2023/06/28 02:34:04;;;;;;;10.73;4.18;;;;;;;;;;4832275;29;20053;-74
2023/06/28 02:36:34;;;;;;;6.55;3.90;;;;;;;;;;4832280;29;20049;-74
2023/06/28 02:39:04;;;;;;;7.47;4.53;;;;;;;;;;4832829;29;20057;-73
2023/06/28 02:41:36;;;;;;;8.45;4.60;;;;;;;;;;4832657;29;20449;-73
2023/06/28 02:44:08;;;;;;;8.73;4.78;;;;;;;;;;4815990;29;20429;-73
2023/06/28 02:46:39;;;;;;;7.85;4.18;;;;;;;;;;4801110;29;20066;-74
2023/06/28 02:49:10;;;;;;;9.60;4.70;;;;;;;;;;4815621;29;20064;-73
2023/06/28 02:51:40;;;;;;;10.20;4.57;;;;;;;;;;4832568;29;20054;-73
2023/06/28 02:54:15;;;;;;;12.05;3.95;;;;;;;;;;4816058;29;20069;-73
2023/06/28 02:56:46;;;;;;;9.70;4.35;;;;;;;;;;4815558;29;20548;-73
2023/06/28 02:59:18;;;;;;;7.53;4.45;;;;;;;;;;4832542;29;20070;-73
2023/06/28 03:01:52;;;;;;;8.35;3.97;;;;;;;;;;4816026;29;20058;-74
2023/06/28 03:04:27;;;;;;;8.57;4.80;;;;;;;;;;4815190;29;20065;-73
2023/06/28 03:07:01;;;;;;;8.13;4.13;;;;;;;;;;4815813;29;20505;-73
2023/06/28 03:09:32;;;;;;;10.38;4.65;;;;;;;;;;4815925;29;20061;-72
2023/06/28 03:12:04;;;;;;;13.93;4.35;;;;;;;;;;4814505;29;20053;-73
2023/06/28 03:14:35;;;;;;;11.57;5.20;;;;;;;;;;4832182;29;20058;-73
2023/06/28 03:17:07;;;;;;;11.55;4.22;;;;;;;;;;4815592;29;20062;-74
2023/06/28 03:19:37;;;;;;;7.25;4.45;;;;;;;;;;4831968;29;20053;-73
2023/06/28 03:22:08;;;;;;;8.15;3.70;;;;;;;;;;4815179;29;20062;-73
2023/06/28 03:24:39;;;;;;;6.70;4.45;;;;;;;;;;4831942;29;20072;-73
2023/06/28 03:27:10;;;;;;;8.60;4.90;;;;;;;;;;4815093;29;20074;-73
2023/06/28 03:29:41;;;;;;;9.57;4.03;;;;;;;;;;4815277;29;20057;-74
2023/06/28 03:32:14;;;;;;;7.90;3.92;;;;;;;;;;4815252;29;20069;-75
2023/06/28 03:34:45;;;;;;;6.00;3.63;;;;;;;;;;4815261;29;20066;-74
2023/06/28 03:37:18;;;;;;;6.13;3.60;;;;;;;;;;4815076;29;20053;-73
2023/06/28 03:39:50;;;;;;;8.30;3.83;;;;;;;;;;4814436;29;20109;-74
2023/06/28 03:42:21;;;;;;;6.15;3.92;;;;;;;;;;4815198;29;20061;-74
2023/06/28 03:44:52;;;;;;;13.93;3.67;;;;;;;;;;4831645;29;20045;-74
2023/06/28 03:47:24;;;;;;;9.75;3.60;;;;;;;;;;4815122;29;20062;-73
2023/06/28 03:49:54;;;;;;;7.70;4.05;;;;;;;;;;4814771;29;20061;-74
2023/06/28 03:52:28;;;;;;;6.30;3.67;;;;;;;;;;4815183;29;20065;-73
2023/06/28 03:54:59;;;;;;;6.75;4.32;;;;;;;;;;4815273;29;20062;-74
2023/06/28 03:57:30;;;;;;;5.45;3.97;;;;;;;;;;4814447;29;20073;-72
2023/06/28 04:00:00;;;;;;;5.50;3.38;;;;;;;;;;4831164;29;21275;-73
2023/06/28 04:02:41;;;;;;;9.18;3.35;;;;;;;;;;4835105;29;20086;-73
2023/06/28 04:05:12;;;;;;;9.45;3.95;;;;;;;;;;4831783;29;20050;-74
2023/06/28 04:07:43;;;;;;;11.13;3.50;;;;;;;;;;4832013;29;20054;-74
2023/06/28 04:10:13;;;;;;;5.40;3.35;;;;;;;;;;4814904;29;20077;-73
2023/06/28 04:12:43;;;;;;;7.80;4.30;;;;;;;;;;4831252;29;20061;-74
2023/06/28 04:15:14;;;;;;;13.52;3.92;;;;;;;;;;4831114;29;20065;-73
2023/06/28 04:17:46;;;;;;;5.45;3.70;;;;;;;;;;4831492;29;20425;-74
2023/06/28 04:20:18;;;;;;;8.93;3.28;;;;;;;;;;4814127;29;20057;-73
2023/06/28 04:22:48;;;;;;;6.88;3.80;;;;;;;;;;4831618;29;20060;-73
2023/06/28 04:25:19;;;;;;;7.93;3.28;;;;;;;;;;4835130;29;20054;-73
2023/06/28 04:27:51;;;;;;;6.10;2.97;;;;;;;;;;4835302;29;20705;-73
2023/06/28 04:30:21;;;;;;;6.50;3.10;;;;;;;;;;4834523;29;20072;-73
2023/06/28 04:32:52;;;;;;;12.10;3.92;;;;;;;;;;4834547;29;20522;-74
2023/06/28 04:35:22;;;;;;;8.73;3.40;;;;;;;;;;4834348;29;20054;-73
2023/06/28 04:37:56;;;;;;;4.95;3.22;;;;;;;;;;4834602;29;20057;-74
2023/06/28 04:40:27;;;;;;;6.50;4.25;;;;;;;;;;4834579;29;20064;-74
2023/06/28 04:42:57;;;;;;;12.77;3.50;;;;;;;;;;4834352;29;20057;-74
2023/06/28 04:45:36;;;;;;;9.30;3.20;;;;;;;;;;4834793;29;20057;-73
2023/06/28 04:48:07;;;;;;;7.20;3.13;;;;;;;;;;4834741;29;20053;-74
2023/06/28 04:50:38;;;;;;;8.38;3.05;;;;;;;;;;4834970;29;20053;-74
2023/06/28 04:53:09;;;;;;;5.55;3.20;;;;;;;;;;4834270;29;20084;-73
2023/06/28 04:55:43;;;;;;;6.68;2.92;;;;;;;;;;4834559;29;20053;-74
2023/06/28 04:58:15;;;;;;;5.13;3.13;;;;;;;;;;4834379;29;20042;-74
2023/06/28 05:00:46;;;;;;;7.85;2.92;;;;;;;;;;4834250;29;20056;-73
2023/06/28 05:03:16;;;;;;;5.90;3.38;;;;;;;;;;4834377;29;20077;-74
2023/06/28 05:05:48;;;;;;;6.32;3.42;;;;;;;;;;4834653;29;20057;-74
2023/06/28 05:08:19;;;;;;;4.93;2.95;;;;;;;;;;4834232;29;20050;-74
2023/06/28 05:10:50;;;;;;;8.13;4.35;;;;;;;;;;4833962;29;20057;-73
2023/06/28 05:13:22;;;;;;;7.13;3.70;;;;;;;;;;4816556;29;20073;-74
2023/06/28 05:15:54;;;;;;;7.60;3.15;;;;;;;;;;4834049;29;20049;-74
2023/06/28 05:18:25;;;;;;;5.47;3.03;;;;;;;;;;4834269;29;20064;-74
2023/06/28 05:20:55;;;;;;;3.75;3.10;;;;;;;;;;4833989;29;20061;-74
2023/06/28 05:23:25;;;;;;;5.03;3.00;;;;;;;;;;4833013;29;20060;-73
2023/06/28 05:25:56;;;;;;;8.20;2.63;;;;;;;;;;4834120;29;20042;-74
2023/06/28 05:28:27;;;;;;;5.25;2.97;;;;;;;;;;4833615;29;20645;-74
2023/06/28 05:30:57;;;;;;;4.70;2.60;;;;;;;;;;4833561;29;20049;-74
2023/06/28 05:33:27;;;;;;;7.72;2.70;;;;;;;;;;4817053;29;20078;-74
2023/06/28 05:35:58;;;;;;;10.23;3.47;;;;;;;;;;4833757;29;20422;-74
2023/06/28 05:38:29;;;;;;;5.05;3.00;;;;;;;;;;4833935;29;20069;-73
2023/06/28 05:41:14;;;;;;;4.60;2.60;;;;;;;;;;4833550;29;20414;-74
2023/06/28 05:43:47;;;;;;;7.40;2.70;;;;;;;;;;4833620;29;20062;-74
2023/06/28 05:46:18;;;;;;;6.85;2.90;;;;;;;;;;4833917;29;20645;-74
2023/06/28 05:48:52;;;;;;;8.30;2.50;;;;;;;;;;4834030;29;20058;-74
2023/06/28 05:51:24;;;;;;;6.65;2.55;;;;;;;;;;4833311;29;20545;-73
2023/06/28 05:53:55;;;;;;;6.20;3.33;;;;;;;;;;4833263;29;20909;-74
2023/06/28 05:56:25;;;;;;;5.75;2.67;;;;;;;;;;4832976;29;20066;-73
2023/06/28 05:58:56;;;;;;;6.80;3.05;;;;;;;;;;4833483;29;20054;-73
2023/06/28 06:01:28;;;;;;;4.32;2.90;;;;;;;;;;4833017;29;20050;-74
2023/06/28 06:03:58;;;;;;;4.85;2.85;;;;;;;;;;4833090;29;20410;-74
2023/06/28 06:06:28;;;;;;;5.07;3.05;;;;;;;;;;4816586;29;20064;-74
2023/06/28 06:08:59;;;;;;;5.30;2.70;;;;;;;;;;4833209;29;20406;-74
2023/06/28 06:11:29;;;;;;;3.65;2.90;;;;;;;;;;4832741;29;20422;-74
2023/06/28 06:14:00;;;;;;;7.70;2.75;;;;;;;;;;4833079;29;20049;-74
2023/06/28 06:16:30;;;;;;;4.25;2.55;;;;;;;;;;4833264;29;20577;-74
2023/06/28 06:19:00;;;;;;;8.60;3.10;;;;;;;;;;4832989;29;20053;-74
2023/06/28 06:21:31;;;;;;;5.25;2.92;;;;;;;;;;4832750;29;20058;-73
2023/06/28 06:24:07;;;;;;;6.57;2.67;;;;;;;;;;4832926;29;20068;-74
2023/06/28 06:26:37;;;;;;;4.00;2.33;;;;;;;;;;4832637;29;20077;-74
2023/06/28 06:29:08;;;;;;;3.97;2.15;;;;;;;;;;4832153;29;20061;-73
2023/06/28 06:31:38;;;;;;;4.97;2.28;;;;;;;;;;4831819;29;20513;-74
2023/06/28 06:34:10;;;;;;;7.85;2.90;;;;;;;;;;4833150;29;20062;-74
2023/06/28 06:36:40;;;;;;;5.57;2.92;;;;;;;;;;4816719;29;20395;-74
2023/06/28 06:39:11;;;;;;;4.70;2.47;;;;;;;;;;4832759;29;20066;-74
2023/06/28 06:41:43;;;;;;;7.63;2.40;;;;;;;;;;4832587;29;20058;-73
2023/06/28 06:44:14;;;;;;;5.55;2.63;;;;;;;;;;4816752;29;20054;-74
2023/06/28 06:46:47;;;;;;;5.93;3.00;;;;;;;;;;4831430;29;20411;-74
2023/06/28 06:49:20;;;;;;;6.75;2.65;;;;;;;;;;4832679;29;20062;-74
2023/06/28 06:51:57;;;;;;;4.95;2.45;;;;;;;;;;4832511;29;20045;-74
2023/06/28 06:54:29;;;;;;;4.22;2.63;;;;;;;;;;4832679;29;20061;-74
2023/06/28 06:57:05;;;;;;;6.85;2.80;;;;;;;;;;4832258;29;20045;-74
2023/06/28 06:59:36;;;;;;;7.80;2.50;;;;;;;;;;4832696;29;20057;-74
2023/06/28 07:02:06;;;;;;;4.38;2.42;;;;;;;;;;4832106;29;20061;-74
2023/06/28 07:04:38;;;;;;;4.63;2.33;;;;;;;;;;4832186;29;20050;-74
2023/06/28 07:07:10;;;;;;;4.93;2.30;;;;;;;;;;4832570;29;20074;-74
2023/06/28 07:09:41;;;;;;;5.05;2.28;;;;;;;;;;4832718;29;20065;-74
2023/06/28 07:12:12;;;;;;;8.13;2.58;;;;;;;;;;4832018;29;20054;-73
2023/06/28 07:14:43;;;;;;;5.00;2.53;;;;;;;;;;4831714;29;20054;-74
2023/06/28 07:17:13;;;;;;;5.75;2.88;;;;;;;;;;4831981;29;20058;-74
2023/06/28 07:19:45;;;;;;;4.70;2.67;;;;;;;;;;4832222;29;20556;-74
2023/06/28 07:22:15;;;;;;;6.50;2.20;;;;;;;;;;4831305;29;20049;-73
2023/06/28 07:24:45;;;;;;;5.47;2.20;;;;;;;;;;4831855;29;20061;-74
2023/06/28 07:27:16;;;;;;;6.32;2.58;;;;;;;;;;4815991;29;20058;-74
2023/06/28 07:29:46;;;;;;;3.97;2.40;;;;;;;;;;4832456;29;20061;-74
2023/06/28 07:32:17;;;;;;;4.25;3.08;;;;;;;;;;4831903;29;20430;-74
2023/06/28 07:34:47;;;;;;;3.85;2.20;;;;;;;;;;4816206;29;20536;-74
2023/06/28 07:37:18;;;;;;;6.70;2.50;;;;;;;;;;4831788;29;20049;-73
2023/06/28 07:39:49;;;;;;;8.85;2.85;;;;;;;;;;4831594;29;20413;-73
2023/06/28 07:42:20;;;;;;;6.93;2.85;;;;;;;;;;4831725;29;20050;-73
2023/06/28 07:44:51;;;;;;;5.40;2.20;;;;;;;;;;4831805;29;20108;-73
2023/06/28 07:47:21;;;;;;;5.65;2.22;;;;;;;;;;4831528;29;20050;-73
2023/06/28 07:49:52;;;;;;;5.05;2.78;;;;;;;;;;4832036;29;20057;-73
2023/06/28 07:52:22;;;;;;;6.20;2.47;;;;;;;;;;4831897;29;20050;-73
2023/06/28 07:54:53;;;;;;;6.25;2.20;;;;;;;;;;4831344;29;20053;-73
2023/06/28 07:57:23;;;;;;;5.93;2.28;;;;;;;;;;4832567;29;20049;-73
2023/06/28 07:59:54;;;;;;;6.97;2.90;;;;;;;;;;4835842;29;20576;-73
2023/06/28 08:02:25;;;;;;;4.82;2.47;;;;;;;;;;4835280;29;20061;-73
2023/06/28 08:04:58;;;;;;;3.95;2.10;;;;;;;;;;4835683;29;20045;-73
2023/06/28 08:07:28;;;;;;;4.60;2.30;;;;;;;;;;4835270;29;20061;-74
2023/06/28 08:09:59;;;;;;;4.70;2.40;;;;;;;;;;4835074;29;20065;-73
2023/06/28 08:12:30;;;;;;;8.43;2.67;;;;;;;;;;4835160;29;20580;-76
2023/06/28 08:15:01;;;;;;;7.82;2.15;;;;;;;;;;4835380;29;20050;-72
2023/06/28 08:17:31;;;;;;;3.20;2.30;;;;;;;;;;4835221;29;20434;-72
2023/06/28 08:20:02;;;;;;;4.78;2.35;;;;;;;;;;4818074;29;20062;-73
2023/06/28 08:22:33;;;;;;;10.15;2.78;;;;;;;;;;4834993;29;20050;-72
2023/06/28 08:25:05;;;;;;;5.70;2.92;;;;;;;;;;4835214;29;20069;-73
2023/06/28 08:27:36;;;;;;;4.60;2.10;;;;;;;;;;4835266;29;20062;-74
2023/06/28 08:30:08;;;;;;;3.67;2.13;;;;;;;;;;4818318;29;20061;-74
2023/06/28 08:32:40;;;;;;;3.42;2.13;;;;;;;;;;4818457;29;20053;-73
2023/06/28 08:35:11;;;;;;;4.55;2.40;;;;;;;;;;4834961;29;20062;-76
2023/06/28 08:37:41;;;;;;;4.25;2.35;;;;;;;;;;4818522;29;20521;-74
2023/06/28 08:40:12;;;;;;;7.07;2.22;;;;;;;;;;4817586;29;20058;-74
2023/06/28 08:42:45;;;;;;;4.43;2.08;;;;;;;;;;4817521;29;20061;-74
2023/06/28 08:45:18;;;;;;;4.25;2.10;;;;;;;;;;4834804;29;20050;-74
2023/06/28 08:47:49;;;;;;;3.13;1.90;;;;;;;;;;4818378;29;20061;-74
2023/06/28 08:50:19;;;;;;;5.30;2.40;;;;;;;;;;4818434;29;20062;-74
2023/06/28 08:52:51;;;;;;;5.10;2.50;;;;;;;;;;4834364;29;20057;-75
2023/06/28 08:55:23;;;;;;;5.60;2.55;;;;;;;;;;4818354;29;20417;-74
2023/06/28 08:57:54;;;;;;;3.88;2.30;;;;;;;;;;4834133;29;20050;-74
2023/06/28 09:00:25;;;;;;;4.60;1.80;;;;;;;;;;4834308;29;20065;-75
2023/06/28 09:02:57;;;;;;;5.45;2.40;;;;;;;;;;4834344;29;20049;-75
2023/06/28 09:05:29;;;;;;;13.80;2.38;;;;;;;;;;4834307;29;20054;-74
2023/06/28 09:08:01;;;;;;;3.60;2.30;;;;;;;;;;4833652;29;20445;-74
2023/06/28 09:10:32;;;;;;;5.32;2.65;;;;;;;;;;4833847;29;20417;-74
2023/06/28 09:13:04;;;;;;;7.72;2.17;;;;;;;;;;4834080;29;20054;-75
2023/06/28 09:15:35;;;;;;;4.90;2.00;;;;;;;;;;4834064;29;20060;-74
2023/06/28 09:18:06;;;;;;;5.95;2.22;;;;;;;;;;4833778;29;20058;-76
2023/06/28 09:20:37;;;;;;;9.10;2.40;;;;;;;;;;4817583;29;20062;-75
2023/06/28 09:23:10;;;;;;;5.50;2.15;;;;;;;;;;4833632;29;20546;-75
2023/06/28 09:25:42;;;;;;;4.30;2.25;;;;;;;;;;4833846;29;20050;-75
2023/06/28 09:28:12;;;;;;;4.25;2.53;;;;;;;;;;4834001;29;20403;-74
2023/06/28 09:30:55;;;;;;;;;;;;;;;;;;4833824;29;20522;-75
2023/06/28 09:33:27;;;;;;;3.65;2.10;;;;;;;;;;4833947;29;19928;-75
2023/06/28 09:35:58;;;;;;;7.85;2.67;;;;;;;;;;4833915;29;20054;-74
2023/06/28 09:38:29;;;;;;;9.50;2.13;;;;;;;;;;4833585;29;20493;-74
2023/06/28 09:41:01;;;;;;;4.07;2.15;;;;;;;;;;4834285;29;20058;-76
2023/06/28 09:43:34;;;;;;;9.05;2.50;;;;;;;;;;4833977;29;20070;-76
2023/06/28 09:46:13;;;;;;;5.68;2.42;;;;;;;;;;4817380;29;20056;-75
2023/06/28 09:48:47;;;;;;;8.25;2.50;;;;;;;;;;4833836;29;20061;-74
2023/06/28 09:51:18;;;;;;;3.85;1.92;;;;;;;;;;4832866;29;20065;-76
2023/06/28 09:53:52;;;;;;;17.33;2.95;;;;;;;;;;4833071;29;20422;-77
2023/06/28 09:56:34;;;;;;;3.85;2.33;;;;;;;;;;4833324;29;20074;-76
2023/06/28 09:59:08;;;;;;;6.75;2.30;;;;;;;;;;4833180;29;20054;-76
2023/06/28 10:02:01;;;;;;;4.15;2.10;;;;;;;;;;4833281;29;20053;-75
2023/06/28 10:04:36;;;;;;;4.97;2.08;;;;;;;;;;4833274;29;20052;-75
2023/06/28 10:07:11;;;;;;;4.60;2.50;;;;;;;;;;4833188;29;20057;-75
2023/06/28 10:09:42;;;;;;;4.28;2.00;;;;;;;;;;4833205;29;20053;-74
2023/06/28 10:12:18;;;;;;;6.35;2.38;;;;;;;;;;4833185;29;20054;-75
2023/06/28 10:15:07;;;;;;;5.22;2.35;;;;;;;;;;4832862;29;20084;-75
2023/06/28 10:17:39;;;;;;;4.47;2.28;;;;;;;;;;4833435;29;20534;-75
2023/06/28 10:20:10;;;;;;;7.75;2.55;;;;;;;;;;4832458;29;20058;-74
2023/06/28 10:22:40;;;;;;;5.07;2.63;;;;;;;;;;4816861;29;20053;-76
2023/06/28 10:25:14;;;;;;;4.50;2.33;;;;;;;;;;4832148;29;20072;-74
2023/06/28 10:27:46;;;;;;;6.78;2.72;;;;;;;;;;4832759;29;20061;-75
2023/06/28 10:30:17;;;;;;;8.95;2.70;;;;;;;;;;4832921;29;20436;-74
2023/06/28 10:32:51;;;;;;;4.53;2.67;;;;;;;;;;4816495;29;20402;-75
2023/06/28 10:35:25;;;;;;;4.13;2.38;;;;;;;;;;4816115;29;20065;-74
2023/06/28 10:37:59;;;;;;;3.58;2.22;;;;;;;;;;4832557;29;20049;-75
2023/06/28 10:40:30;;;;;;;8.63;2.70;;;;;;;;;;4832136;29;20050;-74
2023/06/28 10:43:01;;;;;;;4.70;2.42;;;;;;;;;;4833090;29;20085;-75
2023/06/28 10:45:37;;;;;;;5.32;2.40;;;;;;;;;;4832682;29;20053;-79
2023/06/28 10:48:17;;;;;;;6.30;2.33;;;;;;;;;;4831768;29;20065;-75
2023/06/28 10:50:50;;;;;;;9.38;2.20;;;;;;;;;;4832434;29;20061;-75
2023/06/28 10:53:28;;;;;;;27.58;3.38;;;;;;;;;;4833212;29;20061;-75
2023/06/28 10:56:10;;;;;;;10.23;2.70;;;;;;;;;;4815591;29;20065;-74
2023/06/28 10:58:42;;;;;;;6.88;2.53;;;;;;;;;;4832176;29;20616;-74
2023/06/28 11:01:31;;;;;;;9.77;2.63;;;;;;;;;;4832516;29;20056;-74
2023/06/28 11:04:27;;;;;;;5.53;2.55;;;;;;;;;;4832537;29;20054;-74
2023/06/28 11:07:04;;;;;;;6.32;2.60;;;;;;;;;;4830410;29;20070;-75
2023/06/28 11:09:36;;;;;;;10.07;2.55;;;;;;;;;;4831782;29;20070;-75
2023/06/28 11:12:13;;;;;;;6.20;2.72;;;;;;;;;;4831910;29;20408;-75
2023/06/28 11:14:44;;;;;;;13.95;2.53;;;;;;;;;;4832094;29;20042;-75
2023/06/28 11:17:15;;;;;;;11.82;2.83;;;;;;;;;;4832077;29;20050;-74
2023/06/28 11:19:46;;;;;;;5.00;2.70;;;;;;;;;;4832386;29;20056;-75
2023/06/28 11:22:17;;;;;;;14.23;3.15;;;;;;;;;;4831918;29;20073;-75
2023/06/28 11:24:47;;;;;;;10.15;4.18;;;;;;;;;;4831768;29;20548;-73
2023/06/28 11:27:22;;;;;;;22.15;4.70;;;;;;;;;;4831787;29;20061;-74
2023/06/28 11:30:03;;;;;;;6.63;3.13;;;;;;;;;;4831527;29;20049;-75
2023/06/28 11:32:36;;;;;;;24.17;6.07;;;;;;;;;;4832091;29;20073;-74
2023/06/28 11:35:07;;;;;;;9.18;3.80;;;;;;;;;;4830642;29;20054;-75
2023/06/28 11:37:39;;;;;;;17.60;7.38;;;;;;;;;;4830806;29;20049;-75
2023/06/28 11:40:11;;;;;;;14.48;4.38;;;;;;;;;;4831271;29;20513;-74
2023/06/28 11:42:45;;;;;;;13.52;5.88;;;;;;;;;;4831510;29;20066;-74
2023/06/28 11:45:20;;;;;;;10.82;5.00;;;;;;;;;;4831735;29;20525;-75
2023/06/28 11:47:50;;;;;;;10.75;4.13;;;;;;;;;;4832250;29;20502;-77
2023/06/28 11:50:21;;;;;;;11.30;3.78;;;;;;;;;;4831876;29;20050;-74
2023/06/28 11:52:53;;;;;;;14.32;3.03;;;;;;;;;;4831773;29;20050;-74
2023/06/28 11:55:28;;;;;;;8.48;2.85;;;;;;;;;;4831791;29;20054;-75
2023/06/28 11:57:58;;;;;;;18.42;3.47;;;;;;;;;;4831532;29;20058;-74
2023/06/28 12:00:39;;;;;;;9.27;3.22;;;;;;;;;;4831278;29;20058;-75
2023/06/28 12:03:10;;;;;;;16.05;3.55;;;;;;;;;;4831377;29;20065;-75
2023/06/28 12:05:52;;;;;;;6.93;3.05;;;;;;;;;;4831343;29;20060;-74
2023/06/28 12:08:23;;;;;;;11.45;4.15;;;;;;;;;;4814883;29;20061;-74
2023/06/28 12:10:55;;;;;;;7.55;2.90;;;;;;;;;;4831753;29;20053;-74
2023/06/28 12:13:27;;;;;;;12.50;2.95;;;;;;;;;;4831278;29;20058;-74
2023/06/28 12:16:10;;;;;;;8.35;2.92;;;;;;;;;;4814809;29;20073;-74
2023/06/28 12:19:01;;;;;;;9.77;2.70;;;;;;;;;;4815088;29;20050;-74
2023/06/28 12:21:34;;;;;;;6.47;2.85;;;;;;;;;;4831416;29;20763;-73
2023/06/28 12:24:24;;;;;;;6.25;2.67;;;;;;;;;;4831166;29;20136;-74
2023/06/28 12:26:58;;;;;;;11.55;2.70;;;;;;;;;;4830975;29;20068;-74
2023/06/28 12:29:31;;;;;;;10.35;2.95;;;;;;;;;;4831436;29;20045;-74
2023/06/28 12:32:11;;;;;;;12.05;4.65;;;;;;;;;;4831471;29;20056;-74
2023/06/28 12:34:49;;;;;;;12.15;3.85;;;;;;;;;;4831608;29;20061;-74
2023/06/28 12:37:32;;;;;;;10.65;3.45;;;;;;;;;;4831418;29;20054;-75
2023/06/28 12:40:08;;;;;;;11.63;3.90;;;;;;;;;;4814875;29;20049;-74
2023/06/28 12:42:38;;;;;;;10.32;3.40;;;;;;;;;;4830360;29;20038;-75
2023/06/28 12:45:11;;;;;;;6.35;3.22;;;;;;;;;;4834054;29;20054;-76
2023/06/28 12:47:43;;;;;;;7.72;3.25;;;;;;;;;;4834797;29;20069;-78
2023/06/28 12:50:15;;;;;;;9.85;3.65;;;;;;;;;;4834822;29;20418;-75
2023/06/28 12:52:46;;;;;;;10.10;3.10;;;;;;;;;;4835247;29;20083;-74
2023/06/28 12:55:16;;;;;;;6.35;2.72;;;;;;;;;;4834402;29;20513;-75
2023/06/28 12:57:46;;;;;;;6.82;2.65;;;;;;;;;;4834685;29;20054;-75
2023/06/28 13:00:18;;;;;;;6.18;2.78;;;;;;;;;;4834194;29;20064;-77
2023/06/28 13:02:48;;;;;;;5.50;2.72;;;;;;;;;;4834146;29;20050;-74
2023/06/28 13:05:21;;;;;;;8.75;3.05;;;;;;;;;;4834472;29;20050;-75
2023/06/28 13:07:51;;;;;;;9.65;2.95;;;;;;;;;;4834059;29;20068;-74
2023/06/28 13:10:21;;;;;;;6.03;2.65;;;;;;;;;;4834365;29;20505;-75
2023/06/28 13:12:52;;;;;;;6.43;3.15;;;;;;;;;;4834173;29;20057;-75
2023/06/28 13:15:23;;;;;;;8.70;3.00;;;;;;;;;;4834377;29;20054;-75
2023/06/28 13:17:53;;;;;;;10.90;3.10;;;;;;;;;;4834191;29;20065;-75
2023/06/28 13:20:23;;;;;;;16.00;3.28;;;;;;;;;;4834606;29;20528;-75
2023/06/28 13:22:54;;;;;;;8.32;3.08;;;;;;;;;;4817042;29;20395;-74
2023/06/28 13:25:26;;;;;;;6.13;2.70;;;;;;;;;;4834068;29;20046;-74
2023/06/28 13:27:58;;;;;;;11.68;3.03;;;;;;;;;;4833665;29;20514;-73
2023/06/28 13:30:28;;;;;;;9.15;3.45;;;;;;;;;;4833561;29;20639;-74
2023/06/28 13:32:59;;;;;;;10.50;2.80;;;;;;;;;;4833616;29;20540;-73
2023/06/28 13:35:30;;;;;;;8.75;3.60;;;;;;;;;;4833931;29;20441;-74
2023/06/28 13:38:01;;;;;;;10.98;2.70;;;;;;;;;;4833881;29;20053;-74
2023/06/28 13:40:31;;;;;;;7.68;2.80;;;;;;;;;;4833568;29;20050;-78
2023/06/28 13:43:04;;;;;;;9.48;2.50;;;;;;;;;;4833372;29;20054;-75
2023/06/28 13:45:35;;;;;;;5.75;2.25;;;;;;;;;;4833977;29;20050;-76
2023/06/28 13:48:07;;;;;;;7.20;2.20;;;;;;;;;;4834048;29;20234;-74
2023/06/28 13:50:37;;;;;;;6.20;2.90;;;;;;;;;;4833675;29;20430;-74
2023/06/28 13:53:07;;;;;;;3.80;2.00;;;;;;;;;;4833623;29;20514;-75
2023/06/28 13:55:39;;;;;;;5.85;2.35;;;;;;;;;;4832675;29;20533;-74
2023/06/28 13:58:10;;;;;;;8.98;2.63;;;;;;;;;;4833659;29;20433;-74
2023/06/28 14:00:40;;;;;;;12.38;3.28;;;;;;;;;;4833473;29;20046;-74
2023/06/28 14:03:11;;;;;;;9.32;2.80;;;;;;;;;;4832797;29;20069;-74
2023/06/28 14:05:42;;;;;;;9.43;3.30;;;;;;;;;;4816944;29;20058;-74
2023/06/28 14:08:16;;;;;;;5.82;2.38;;;;;;;;;;4833332;29;20057;-74
2023/06/28 14:10:47;;;;;;;5.95;2.58;;;;;;;;;;4833473;29;20049;-74
2023/06/28 14:13:17;;;;;;;7.03;3.22;;;;;;;;;;4833572;29;20824;-73
2023/06/28 14:15:48;;;;;;;10.48;2.83;;;;;;;;;;4833278;29;20065;-76
2023/06/28 14:18:20;;;;;;;13.00;3.60;;;;;;;;;;4832816;29;20087;-75
2023/06/28 14:20:50;;;;;;;10.10;3.20;;;;;;;;;;4832924;29;20050;-75
2023/06/28 14:23:22;;;;;;;6.63;2.67;;;;;;;;;;4833178;29;20062;-76
2023/06/28 14:25:53;;;;;;;5.70;3.03;;;;;;;;;;4832906;29;20910;-75
2023/06/28 14:28:24;;;;;;;9.43;3.45;;;;;;;;;;4833200;29;20050;-76
2023/06/28 14:30:55;;;;;;;7.70;3.92;;;;;;;;;;4832806;29;20053;-76
2023/06/28 14:33:27;;;;;;;8.88;4.00;;;;;;;;;;4832952;29;20065;-75
2023/06/28 14:35:59;;;;;;;16.02;5.38;;;;;;;;;;4816430;29;20057;-75
2023/06/28 14:38:31;;;;;;;6.75;3.50;;;;;;;;;;4833003;29;20057;-75
2023/06/28 14:41:01;;;;;;;7.05;3.65;;;;;;;;;;4832737;29;20058;-76
2023/06/28 14:43:33;;;;;;;6.60;3.25;;;;;;;;;;4832627;29;20054;-75
2023/06/28 14:46:03;;;;;;;8.82;3.65;;;;;;;;;;4833073;29;20060;-77
2023/06/28 14:48:35;;;;;;;12.25;4.18;;;;;;;;;;4816452;29;20078;-75
2023/06/28 14:51:06;;;;;;;14.18;4.85;;;;;;;;;;4832135;29;20056;-74
2023/06/28 14:53:37;;;;;;;14.18;4.97;;;;;;;;;;4831923;29;20510;-75
2023/06/28 14:56:07;;;;;;;9.95;4.07;;;;;;;;;;4832702;29;20053;-75
2023/06/28 14:58:38;;;;;;;10.10;3.95;;;;;;;;;;4816925;29;20089;-75
2023/06/28 15:01:08;;;;;;;14.43;3.78;;;;;;;;;;4832346;29;20057;-75
2023/06/28 15:03:38;;;;;;;9.80;5.10;;;;;;;;;;4831445;29;20489;-75
2023/06/28 15:06:10;;;;;;;8.35;4.50;;;;;;;;;;4832601;29;20050;-74
2023/06/28 15:08:41;;;;;;;10.02;5.45;;;;;;;;;;4831936;29;20050;-75
2023/06/28 15:11:12;;;;;;;13.20;4.18;;;;;;;;;;4832338;29;20056;-75